createdAt,value
2019-05-09T00:01:08.213Z,66.28
2019-05-09T00:03:16.452Z,66.78
2019-05-09T00:05:25.453Z,66.66
2019-05-09T00:07:34.019Z,66.66
2019-05-09T00:09:44.080Z,66.52
2019-05-09T00:11:53.117Z,66.84
2019-05-09T00:14:01.348Z,66.91
2019-05-09T00:16:09.736Z,67.13
2019-05-09T00:18:17.976Z,66.93
2019-05-09T00:20:43.700Z,67.00
2019-05-09T00:22:53.846Z,67.02
2019-05-09T00:25:03.276Z,67.09
2019-05-09T00:27:13.987Z,67.22
2019-05-09T00:29:21.050Z,67.27
2019-05-09T00:31:31.041Z,67.55
2019-05-09T00:33:39.372Z,67.69
2019-05-09T00:35:47.542Z,67.58
2019-05-09T00:37:57.461Z,67.74
2019-05-09T00:40:06.702Z,67.76
2019-05-09T00:42:14.966Z,67.83
2019-05-09T00:44:24.954Z,67.87
2019-05-09T00:46:34.903Z,67.97
2019-05-09T00:48:44.710Z,68.15
2019-05-09T00:50:54.410Z,68.09
2019-05-09T00:53:03.199Z,68.23
2019-05-09T00:55:13.257Z,68.19
2019-05-09T00:57:34.729Z,68.22
2019-05-09T00:59:44.632Z,68.37
2019-05-09T01:01:54.344Z,68.33
2019-05-09T01:04:04.299Z,68.51
2019-05-09T01:06:13.540Z,68.56
2019-05-09T01:08:24.077Z,68.48
2019-05-09T01:10:34.236Z,68.45
2019-05-09T01:12:43.505Z,68.46
2019-05-09T01:14:53.868Z,68.43
2019-05-09T01:17:04.041Z,68.49
2019-05-09T01:19:14.098Z,68.51
2019-05-09T01:21:24.042Z,68.49
2019-05-09T01:23:34.309Z,68.75
2019-05-09T01:25:43.627Z,68.69
2019-05-09T01:27:53.875Z,68.92
2019-05-09T01:30:04.332Z,68.83
2019-05-09T01:32:14.405Z,68.87
2019-05-09T01:34:24.113Z,68.92
2019-05-09T01:36:50.139Z,68.90
2019-05-09T01:38:58.280Z,68.94
2019-05-09T01:41:06.528Z,68.96
2019-05-09T01:43:14.801Z,69.05
2019-05-09T01:45:23.741Z,69.07
2019-05-09T01:47:34.059Z,69.12
2019-05-09T01:49:43.138Z,69.22
2019-05-09T01:51:53.690Z,69.19
2019-05-09T01:54:03.797Z,69.19
2019-05-09T01:56:13.817Z,69.28
2019-05-09T01:58:23.132Z,69.32
2019-05-09T02:00:33.116Z,69.27
2019-05-09T02:02:43.227Z,69.24
2019-05-09T02:04:53.195Z,69.21
2019-05-09T02:07:00.948Z,69.21
2019-05-09T02:09:10.248Z,69.19
2019-05-09T02:11:18.668Z,69.35
2019-05-09T02:13:27.161Z,69.28
2019-05-09T02:15:41.005Z,69.23
2019-05-09T02:17:58.814Z,69.31
2019-05-09T02:20:04.094Z,69.35
2019-05-09T02:22:30.374Z,69.42
2019-05-09T02:24:38.679Z,69.45
2019-05-09T02:26:46.958Z,69.50
2019-05-09T02:28:55.223Z,69.54
2019-05-09T02:31:05.256Z,69.48
2019-05-09T02:33:14.634Z,69.56
2019-05-09T02:35:23.376Z,69.67
2019-05-09T02:37:31.590Z,69.55
2019-05-09T02:39:39.961Z,69.51
2019-05-09T02:42:03.542Z,69.41
2019-05-09T02:43:58.661Z,69.37
2019-05-09T02:46:09.708Z,69.30
2019-05-09T02:48:18.734Z,69.19
2019-05-09T02:50:28.526Z,69.11
2019-05-09T02:52:39.565Z,69.08
2019-05-09T02:54:50.099Z,69.22
2019-05-09T02:56:58.190Z,69.21
2019-05-09T02:59:09.714Z,69.18
2019-05-09T03:01:30.024Z,69.37
2019-05-09T03:03:40.306Z,69.30
2019-05-09T03:05:48.955Z,69.27
2019-05-09T03:07:58.365Z,69.73
2019-05-09T03:10:08.894Z,69.92
2019-05-09T03:12:30.381Z,69.34
2019-05-09T03:14:28.662Z,69.15
2019-05-09T03:16:39.746Z,69.07
2019-05-09T03:18:49.445Z,68.93
2019-05-09T03:21:04.158Z,68.93
2019-05-09T03:23:12.645Z,68.83
2019-05-09T03:25:20.801Z,68.86
2019-05-09T03:27:30.722Z,68.78
2019-05-09T03:29:40.370Z,68.79
2019-05-09T03:31:50.418Z,68.81
2019-05-09T03:33:59.733Z,68.77
2019-05-09T03:36:08.470Z,68.85
2019-05-09T03:38:17.970Z,68.92
2019-05-09T03:40:27.214Z,68.92
2019-05-09T03:42:43.118Z,68.91
2019-05-09T03:44:47.670Z,69.00
2019-05-09T03:46:59.432Z,69.01
2019-05-09T03:49:12.158Z,69.02
2019-05-09T03:51:20.202Z,69.08
2019-05-09T03:53:28.574Z,69.05
2019-05-09T03:55:38.347Z,69.04
2019-05-09T03:57:48.305Z,68.97
2019-05-09T03:59:57.278Z,68.92
2019-05-09T04:02:09.901Z,68.84
2019-05-09T04:04:17.332Z,68.53
2019-05-09T04:06:27.947Z,68.51
2019-05-09T04:08:37.475Z,68.53
2019-05-09T04:10:50.595Z,68.31
2019-05-09T04:12:59.683Z,68.27
2019-05-09T04:15:08.759Z,68.11
2019-05-09T04:17:18.144Z,68.03
2019-05-09T04:19:27.607Z,67.90
2019-05-09T04:21:35.639Z,67.60
2019-05-09T04:23:43.512Z,67.46
2019-05-09T04:25:53.092Z,67.00
2019-05-09T04:28:02.269Z,66.54
2019-05-09T04:30:11.379Z,66.34
2019-05-09T04:32:19.750Z,66.24
2019-05-09T04:34:28.256Z,65.43
2019-05-09T04:36:38.928Z,64.69
2019-05-09T04:38:47.290Z,64.61
2019-05-09T04:40:58.168Z,64.27
2019-05-09T04:43:14.042Z,63.85
2019-05-09T04:45:17.707Z,63.80
2019-05-09T04:47:27.816Z,63.16
2019-05-09T04:49:40.974Z,62.61
2019-05-09T04:51:47.947Z,62.05
2019-05-09T04:53:58.379Z,61.41
2019-05-09T04:56:27.851Z,60.80
2019-05-09T04:58:37.600Z,60.53
2019-05-09T05:01:03.766Z,60.58
2019-05-09T05:03:11.783Z,60.29
2019-05-09T05:05:20.076Z,59.60
2019-05-09T05:07:28.887Z,59.54
2019-05-09T05:09:37.984Z,59.20
2019-05-09T05:11:49.102Z,59.09
2019-05-09T05:13:58.667Z,59.18
2019-05-09T05:16:08.352Z,58.49
2019-05-09T05:18:17.417Z,57.93
2019-05-09T05:20:28.400Z,58.22
2019-05-09T05:22:38.802Z,58.09
2019-05-09T05:24:49.044Z,58.17
2019-05-09T05:26:57.946Z,58.05
2019-05-09T05:29:08.283Z,58.37
2019-05-09T05:31:17.895Z,58.00
2019-05-09T05:33:27.777Z,57.68
2019-05-09T05:35:48.002Z,57.08
2019-05-09T05:37:58.088Z,57.59
2019-05-09T05:40:07.826Z,56.99
2019-05-09T05:42:17.617Z,57.73
2019-05-09T05:44:25.267Z,57.56
2019-05-09T05:46:51.014Z,57.67
2019-05-09T05:48:58.981Z,57.77
2019-05-09T05:51:08.137Z,57.58
2019-05-09T05:53:18.088Z,57.54
2019-05-09T05:55:27.434Z,57.53
2019-05-09T05:57:35.162Z,57.31
2019-05-09T05:59:43.607Z,56.55
2019-05-09T06:01:51.639Z,56.84
2019-05-09T06:03:59.512Z,56.58
2019-05-09T06:06:08.805Z,56.36
2019-05-09T06:08:17.549Z,56.53
2019-05-09T06:10:25.504Z,56.71
2019-05-09T06:12:33.507Z,56.89
2019-05-09T06:14:41.567Z,56.22
2019-05-09T06:16:49.452Z,56.44
2019-05-09T06:18:58.522Z,55.87
2019-05-09T06:21:08.838Z,56.09
2019-05-09T06:23:17.630Z,56.39
2019-05-09T06:25:30.069Z,55.39
2019-05-09T06:27:37.571Z,55.25
2019-05-09T06:29:59.850Z,54.60
2019-05-09T06:32:09.581Z,54.65
2019-05-09T06:34:19.285Z,55.24
2019-05-09T06:36:28.299Z,55.20
2019-05-09T06:38:38.113Z,55.50
2019-05-09T06:40:47.700Z,55.86
2019-05-09T06:42:59.345Z,56.13
2019-05-09T06:45:08.939Z,55.59
2019-05-09T06:47:27.873Z,55.16
2019-05-09T06:49:40.117Z,54.79
2019-05-09T06:51:52.664Z,54.77
2019-05-09T06:54:02.284Z,55.14
2019-05-09T06:56:11.812Z,55.63
2019-05-09T06:58:33.567Z,55.00
2019-05-09T07:00:55.368Z,54.88
2019-05-09T07:03:08.621Z,54.78
2019-05-09T07:05:21.105Z,54.97
2019-05-09T07:07:33.398Z,55.32
2019-05-09T07:09:42.820Z,54.67
2019-05-09T07:11:52.476Z,54.37
2019-05-09T07:14:04.760Z,55.10
2019-05-09T07:16:18.736Z,54.69
2019-05-09T07:18:28.528Z,53.69
2019-05-09T07:20:43.753Z,53.91
2019-05-09T07:22:58.257Z,53.18
2019-05-09T07:25:23.692Z,53.86
2019-05-09T07:27:38.839Z,53.57
2019-05-09T07:29:48.137Z,53.49
2019-05-09T07:34:32.146Z,52.53
2019-05-09T07:36:42.801Z,52.32
2019-05-09T07:38:55.054Z,52.41
2019-05-09T07:41:05.311Z,51.13
2019-05-09T07:43:14.901Z,51.86
2019-05-09T07:45:24.535Z,52.28
2019-05-09T07:47:39.726Z,52.50
2019-05-09T07:49:49.349Z,50.72
2019-05-09T07:52:06.121Z,51.02
2019-05-09T07:54:24.523Z,50.58
2019-05-09T07:56:22.446Z,50.69
2019-05-09T07:58:34.662Z,50.82
2019-05-09T08:00:44.269Z,50.71
2019-05-09T08:02:58.116Z,50.82
2019-05-09T08:05:09.321Z,50.10
2019-05-09T08:07:21.321Z,49.99
2019-05-09T08:09:40.557Z,50.74
2019-05-09T08:11:50.510Z,49.97
2019-05-09T08:14:10.847Z,49.03
2019-05-09T08:16:27.886Z,49.85
2019-05-09T08:18:37.820Z,48.97
2019-05-09T08:20:47.958Z,48.65
2019-05-09T08:23:01.894Z,47.25
2019-05-09T08:25:15.470Z,47.22
2019-05-09T08:27:25.326Z,47.97
2019-05-09T08:29:34.851Z,47.83
2019-05-09T08:31:45.623Z,47.50
2019-05-09T08:33:55.630Z,46.63
2019-05-09T08:36:08.349Z,47.83
2019-05-09T08:38:17.851Z,47.34
2019-05-09T08:40:28.360Z,46.86
2019-05-09T08:42:37.964Z,48.23
2019-05-09T08:44:48.280Z,48.40
2019-05-09T08:47:05.129Z,47.59
2019-05-09T08:49:14.685Z,47.87
2019-05-09T08:51:36.936Z,49.34
2019-05-09T08:53:44.448Z,48.93
2019-05-09T08:56:08.450Z,49.09
2019-05-09T08:58:20.181Z,48.88
2019-05-09T09:00:31.285Z,48.25
2019-05-09T09:02:40.815Z,48.44
2019-05-09T09:04:50.562Z,48.98
2019-05-09T09:07:00.088Z,48.51
2019-05-09T09:09:09.987Z,47.75
2019-05-09T09:11:19.653Z,47.24
2019-05-09T09:13:29.574Z,48.70
2019-05-09T09:16:11.692Z,48.08
2019-05-09T09:17:54.712Z,48.52
2019-05-09T09:20:04.471Z,47.78
2019-05-09T09:22:13.899Z,47.74
2019-05-09T09:24:28.327Z,49.85
2019-05-09T09:26:38.213Z,49.64
2019-05-09T09:28:48.891Z,50.94
2019-05-09T09:30:59.687Z,51.91
2019-05-09T09:33:13.986Z,52.75
2019-05-09T09:35:29.232Z,53.18
2019-05-09T09:37:48.460Z,54.66
2019-05-09T09:39:50.011Z,56.11
2019-05-09T09:42:02.500Z,58.05
2019-05-09T09:44:18.284Z,58.63
2019-05-09T09:46:28.870Z,59.20
2019-05-09T09:48:39.062Z,59.12
2019-05-09T09:50:51.314Z,59.34
2019-05-09T09:52:59.955Z,59.40
2019-05-09T09:55:09.904Z,59.36
2019-05-09T09:57:19.561Z,59.44
2019-05-09T09:59:29.566Z,59.68
2019-05-09T10:01:41.730Z,58.78
2019-05-09T10:03:51.573Z,58.54
2019-05-09T10:06:01.066Z,59.33
2019-05-09T10:08:14.013Z,58.49
2019-05-09T10:10:37.833Z,57.95
2019-05-09T10:12:49.361Z,57.67
2019-05-09T10:15:14.947Z,56.96
2019-05-09T10:17:40.625Z,56.34
2019-05-09T10:20:00.074Z,55.14
2019-05-09T10:22:26.530Z,54.33
2019-05-09T10:24:39.424Z,54.07
2019-05-09T10:27:08.336Z,54.58
2019-05-09T10:29:19.218Z,54.21
2019-05-09T10:31:28.971Z,53.93
2019-05-09T10:33:38.738Z,54.83
2019-05-09T10:35:48.306Z,55.50
2019-05-09T10:38:00.758Z,55.77
2019-05-09T10:40:11.992Z,55.79
2019-05-09T10:42:30.656Z,56.29
2019-05-09T10:44:40.410Z,56.89
2019-05-09T10:47:00.757Z,56.99
2019-05-09T10:49:08.253Z,56.73
2019-05-09T10:51:18.578Z,56.25
2019-05-09T10:53:28.408Z,55.50
2019-05-09T10:55:38.531Z,55.12
2019-05-09T10:57:51.305Z,56.40
2019-05-09T10:59:57.826Z,56.41
2019-05-09T11:02:05.311Z,57.13
2019-05-09T11:04:13.572Z,57.12
2019-05-09T11:06:21.554Z,57.20
2019-05-09T11:08:30.063Z,58.32
2019-05-09T11:10:39.674Z,58.17
2019-05-09T11:12:48.226Z,58.71
2019-05-09T11:14:59.110Z,57.80
2019-05-09T11:17:12.428Z,58.56
2019-05-09T11:19:18.359Z,57.89
2019-05-09T11:21:28.642Z,60.51
2019-05-09T11:23:36.085Z,61.87
2019-05-09T11:25:47.234Z,63.13
2019-05-09T11:28:06.844Z,62.96
2019-05-09T11:30:08.223Z,61.30
2019-05-09T11:32:17.754Z,60.99
2019-05-09T11:34:25.182Z,61.35
2019-05-09T11:36:33.102Z,61.52
2019-05-09T11:38:43.885Z,61.81
2019-05-09T11:40:50.588Z,61.30
2019-05-09T11:42:58.601Z,60.96
2019-05-09T11:45:07.957Z,60.90
2019-05-09T11:47:28.506Z,60.41
2019-05-09T11:49:25.534Z,61.33
2019-05-09T11:51:33.434Z,60.41
2019-05-09T11:53:41.698Z,61.13
2019-05-09T11:55:49.716Z,60.80
2019-05-09T11:57:59.017Z,60.93
2019-05-09T12:00:08.416Z,60.20
2019-05-09T12:02:18.110Z,60.41
2019-05-09T12:04:28.120Z,61.53
2019-05-09T12:06:38.133Z,61.02
2019-05-09T12:08:45.350Z,61.13
2019-05-09T12:10:53.240Z,61.33
2019-05-09T12:13:02.217Z,61.62
2019-05-09T12:15:10.803Z,61.72
2019-05-09T12:17:19.671Z,60.70
2019-05-09T12:19:29.624Z,60.40
2019-05-09T12:21:46.598Z,60.86
2019-05-09T12:23:48.855Z,60.92
2019-05-09T12:25:58.204Z,60.57
2019-05-09T12:28:07.825Z,60.80
2019-05-09T12:30:18.697Z,60.82
2019-05-09T12:32:28.479Z,60.57
2019-05-09T12:34:36.440Z,60.75
2019-05-09T12:36:44.527Z,60.41
2019-05-09T12:38:52.672Z,60.70
2019-05-09T12:41:01.633Z,60.07
2019-05-09T12:43:09.637Z,60.49
2019-05-09T12:45:18.195Z,60.93
2019-05-09T12:47:29.054Z,60.80
2019-05-09T12:49:38.631Z,60.87
2019-05-09T12:51:46.737Z,60.38
2019-05-09T12:53:54.839Z,61.03
2019-05-09T12:56:03.103Z,60.94
2019-05-09T12:58:12.613Z,61.62
2019-05-09T13:00:21.199Z,61.23
2019-05-09T13:02:29.130Z,60.90
2019-05-09T13:04:38.188Z,60.78
2019-05-09T13:06:48.599Z,60.78
2019-05-09T13:08:55.998Z,60.71
2019-05-09T13:11:04.021Z,61.09
2019-05-09T13:13:12.334Z,60.84
2019-05-09T13:15:22.301Z,61.18
2019-05-09T13:17:32.181Z,60.19
2019-05-09T13:19:44.720Z,60.23
2019-05-09T13:21:53.525Z,60.37
2019-05-09T13:24:01.966Z,60.61
2019-05-09T13:26:10.347Z,60.57
2019-05-09T13:28:18.271Z,60.05
2019-05-09T13:30:28.473Z,60.07
2019-05-09T13:32:37.492Z,60.11
2019-05-09T13:34:45.283Z,59.94
2019-05-09T13:36:54.394Z,59.88
2019-05-09T13:39:05.051Z,59.98
2019-05-09T13:41:12.386Z,60.12
2019-05-09T13:43:20.311Z,60.09
2019-05-09T13:45:28.745Z,60.08
2019-05-09T13:47:37.975Z,60.36
2019-05-09T13:49:48.425Z,60.50
2019-05-09T13:52:01.285Z,60.59
2019-05-09T13:54:06.314Z,60.75
2019-05-09T13:56:17.872Z,60.53
2019-05-09T13:58:25.535Z,60.35
2019-05-09T14:00:33.439Z,60.77
2019-05-09T14:02:44.865Z,60.79
2019-05-09T14:04:51.229Z,60.51
2019-05-09T14:06:59.139Z,60.75
2019-05-09T14:09:10.510Z,60.92
2019-05-09T14:11:19.938Z,60.85
2019-05-09T14:13:28.029Z,61.15
2019-05-09T14:15:36.956Z,61.78
2019-05-09T14:17:52.444Z,61.43
2019-05-09T14:19:54.573Z,61.66
2019-05-09T14:22:03.470Z,61.41
2019-05-09T14:24:15.554Z,61.53
2019-05-09T14:26:21.079Z,61.80
2019-05-09T14:28:29.382Z,62.08
2019-05-09T14:30:38.938Z,62.21
2019-05-09T14:32:49.844Z,62.13
2019-05-09T14:34:58.656Z,61.95
2019-05-09T14:37:09.561Z,61.94
2019-05-09T14:39:18.060Z,61.97
2019-05-09T14:41:27.695Z,62.03
2019-05-09T14:43:39.227Z,61.73
2019-05-09T14:45:48.226Z,61.76
2019-05-09T14:47:55.420Z,61.69
2019-05-09T14:50:04.192Z,61.69
2019-05-09T14:52:12.364Z,61.72
2019-05-09T14:54:20.258Z,61.71
2019-05-09T14:56:28.674Z,61.76
2019-05-09T14:58:38.832Z,61.78
2019-05-09T15:00:48.125Z,61.20
2019-05-09T15:02:58.226Z,61.02
2019-05-09T15:05:09.884Z,61.13
2019-05-09T15:07:19.412Z,61.25
2019-05-09T15:09:28.542Z,61.21
2019-05-09T15:11:39.559Z,61.15
2019-05-09T15:13:47.710Z,61.27
2019-05-09T15:15:57.912Z,61.64
2019-05-09T15:18:08.128Z,61.54
2019-05-09T15:20:18.012Z,61.68
2019-05-09T15:22:28.408Z,61.36
2019-05-09T15:24:38.651Z,61.94
2019-05-09T15:26:47.916Z,61.48
2019-05-09T15:28:57.759Z,61.55
2019-05-09T15:31:08.704Z,60.25
2019-05-09T15:33:17.583Z,60.25
2019-05-09T15:35:28.138Z,61.08
2019-05-09T15:37:38.545Z,61.33
2019-05-09T15:39:48.398Z,60.81
2019-05-09T15:41:57.986Z,60.43
2019-05-09T15:44:08.353Z,60.41
2019-05-09T15:46:18.659Z,60.69
2019-05-09T15:48:28.004Z,60.54
2019-05-09T15:50:38.337Z,60.53
2019-05-09T15:52:46.228Z,60.63
2019-05-09T15:54:54.425Z,60.41
2019-05-09T15:57:02.482Z,60.24
2019-05-09T15:59:10.840Z,60.17
2019-05-09T16:01:18.959Z,59.74
2019-05-09T16:03:27.992Z,59.80
2019-05-09T16:05:38.521Z,59.17
2019-05-09T16:07:48.262Z,59.24
2019-05-09T16:09:58.044Z,58.79
2019-05-09T16:12:07.803Z,58.69
2019-05-09T16:14:18.222Z,58.31
2019-05-09T16:16:28.447Z,58.34
2019-05-09T16:18:35.177Z,58.50
2019-05-09T16:20:43.470Z,58.13
2019-05-09T16:22:52.458Z,58.08
2019-05-09T16:25:00.347Z,57.67
2019-05-09T16:27:08.641Z,57.92
2019-05-09T16:29:17.844Z,58.02
2019-05-09T16:31:27.877Z,58.09
2019-05-09T16:33:35.933Z,58.88
2019-05-09T16:35:43.926Z,58.30
2019-05-09T16:38:01.339Z,57.67
2019-05-09T16:40:03.798Z,57.66
2019-05-09T16:42:13.240Z,57.72
2019-05-09T16:44:21.290Z,58.19
2019-05-09T16:46:29.623Z,58.05
2019-05-09T16:48:37.518Z,57.90
2019-05-09T16:50:57.721Z,58.43
2019-05-09T16:52:58.483Z,58.04
2019-05-09T16:55:09.153Z,58.11
2019-05-09T16:57:18.257Z,58.21
2019-05-09T16:59:28.078Z,58.23
2019-05-09T17:01:39.504Z,58.15
2019-05-09T17:03:47.603Z,58.15
2019-05-09T17:05:55.526Z,57.97
2019-05-09T17:08:03.414Z,58.43
2019-05-09T17:10:11.566Z,58.91
2019-05-09T17:12:20.201Z,59.24
2019-05-09T17:14:28.421Z,59.32
2019-05-09T17:16:37.685Z,59.93
2019-05-09T17:18:48.641Z,59.98
2019-05-09T17:21:18.469Z,59.68
2019-05-09T17:23:24.521Z,60.17
2019-05-09T17:25:32.434Z,60.46
2019-05-09T17:27:40.320Z,60.63
2019-05-09T17:29:49.350Z,60.51
2019-05-09T17:31:58.449Z,61.48
2019-05-09T17:34:06.671Z,60.98
2019-05-09T17:36:14.582Z,60.81
2019-05-09T17:38:22.585Z,60.94
2019-05-09T17:40:30.615Z,61.14
2019-05-09T17:42:39.473Z,61.33
2019-05-09T17:44:48.958Z,61.36
2019-05-09T17:46:58.263Z,61.84
2019-05-09T17:49:08.271Z,62.06
2019-05-09T17:51:25.954Z,62.14
2019-05-09T17:53:28.603Z,62.33
2019-05-09T17:55:38.018Z,62.75
2019-05-09T17:57:47.868Z,62.84
2019-05-09T17:59:58.199Z,62.69
2019-05-09T18:02:04.727Z,62.86
2019-05-09T18:04:12.892Z,62.75
2019-05-09T18:06:20.859Z,63.10
2019-05-09T18:08:28.951Z,63.05
2019-05-09T18:10:38.075Z,63.63
2019-05-09T18:12:47.944Z,63.36
2019-05-09T18:14:57.099Z,63.50
2019-05-09T18:17:05.090Z,63.47
2019-05-09T18:19:13.530Z,63.53
2019-05-09T18:21:21.426Z,63.59
2019-05-09T18:23:30.231Z,63.50
2019-05-09T18:25:38.377Z,63.66
2019-05-09T18:27:48.643Z,63.85
2019-05-09T18:29:58.111Z,64.12
2019-05-09T18:32:07.807Z,64.09
2019-05-09T18:34:18.410Z,64.36
2019-05-09T18:36:28.074Z,64.46
2019-05-09T18:38:38.604Z,64.33
2019-05-09T18:40:47.919Z,64.48
2019-05-09T18:42:55.313Z,64.52
2019-05-09T18:45:03.944Z,64.69
2019-05-09T18:47:12.414Z,64.88
2019-05-09T18:49:20.403Z,65.06
2019-05-09T18:51:28.918Z,65.48
2019-05-09T18:53:36.931Z,65.46
2019-05-09T18:55:44.743Z,65.62
2019-05-09T18:57:52.837Z,65.83
2019-05-09T19:00:00.731Z,65.98
2019-05-09T19:02:09.798Z,66.14
2019-05-09T19:04:18.863Z,66.42
2019-05-09T19:06:26.749Z,66.68
2019-05-09T19:08:34.681Z,66.93
2019-05-09T19:10:42.609Z,67.16
2019-05-09T19:12:50.481Z,67.34
2019-05-09T19:14:58.544Z,67.50
2019-05-09T19:17:24.200Z,67.77
2019-05-09T19:19:39.688Z,67.97
2019-05-09T19:21:49.353Z,68.15
2019-05-09T19:23:57.555Z,68.33
2019-05-09T19:26:09.890Z,68.35
2019-05-09T19:28:18.846Z,68.43
2019-05-09T19:30:27.165Z,68.45
2019-05-09T19:32:35.214Z,68.43
2019-05-09T19:34:43.219Z,68.54
2019-05-09T19:36:51.021Z,68.69
2019-05-09T19:38:58.990Z,68.66
2019-05-09T19:41:07.092Z,68.74
2019-05-09T19:43:15.002Z,68.78
2019-05-09T19:45:23.806Z,68.77
2019-05-09T19:47:31.750Z,68.82
2019-05-09T19:49:39.674Z,68.82
2019-05-09T19:51:47.738Z,68.85
2019-05-09T19:53:56.663Z,68.89
2019-05-09T19:56:04.620Z,68.91
2019-05-09T19:58:12.605Z,68.92
2019-05-09T20:00:20.777Z,69.04
2019-05-09T20:02:28.770Z,69.31
2019-05-09T20:04:36.863Z,69.50
2019-05-09T20:06:44.763Z,69.71
2019-05-09T20:08:53.117Z,69.99
2019-05-09T20:11:10.316Z,70.18
2019-05-09T20:13:25.894Z,70.38
2019-05-09T20:15:34.311Z,70.51
2019-05-09T20:17:42.676Z,70.73
2019-05-09T20:19:51.085Z,70.95
2019-05-09T20:21:59.384Z,71.15
2019-05-09T20:24:09.928Z,71.29
2019-05-09T20:26:18.310Z,71.40
2019-05-09T20:28:27.182Z,71.48
2019-05-09T20:30:35.571Z,71.53
2019-05-09T20:32:46.687Z,71.60
2019-05-09T20:34:54.848Z,71.66
2019-05-09T20:37:03.248Z,71.59
2019-05-09T20:39:12.235Z,71.68
2019-05-09T20:41:20.666Z,71.74
2019-05-09T20:43:29.114Z,71.68
2019-05-09T20:45:37.779Z,71.60
2019-05-09T20:47:45.915Z,71.61
2019-05-09T20:49:53.989Z,71.55
2019-05-09T20:52:02.183Z,71.40
2019-05-09T20:54:20.400Z,71.49
2019-05-09T20:56:20.397Z,71.47
2019-05-09T20:58:28.708Z,71.46
2019-05-09T21:00:37.159Z,71.52
2019-05-09T21:02:45.727Z,71.54
2019-05-09T21:04:53.880Z,71.49
2019-05-09T21:07:02.361Z,71.47
2019-05-09T21:09:10.743Z,71.51
2019-05-09T21:11:19.157Z,71.70
2019-05-09T21:13:27.450Z,71.99
2019-05-09T21:15:35.989Z,72.35
2019-05-09T21:17:45.677Z,72.67
2019-05-09T21:19:54.329Z,72.95
2019-05-09T21:22:03.006Z,73.30
2019-05-09T21:24:11.740Z,73.64
2019-05-09T21:26:20.103Z,73.90
2019-05-09T21:28:28.767Z,74.12
2019-05-09T21:30:37.860Z,74.31
2019-05-09T21:32:46.446Z,74.41
2019-05-09T21:34:54.481Z,74.50
2019-05-09T21:37:02.925Z,74.51
2019-05-09T21:39:10.859Z,74.44
2019-05-09T21:41:20.218Z,74.38
2019-05-09T21:43:28.330Z,74.36
2019-05-09T21:45:36.861Z,74.35
2019-05-09T21:47:44.933Z,74.40
2019-05-09T21:49:52.931Z,74.41
2019-05-09T21:52:00.854Z,74.37
2019-05-09T21:54:09.132Z,74.17
2019-05-09T21:56:17.446Z,73.84
2019-05-09T21:58:26.024Z,73.60
2019-05-09T22:00:37.810Z,73.50
2019-05-09T22:02:46.845Z,73.56
2019-05-09T22:04:55.025Z,73.73
2019-05-09T22:07:03.672Z,73.97
2019-05-09T22:09:12.149Z,74.26
2019-05-09T22:11:20.605Z,74.58
2019-05-09T22:13:29.557Z,74.87
2019-05-09T22:15:37.989Z,75.24
2019-05-09T22:17:45.954Z,75.58
2019-05-09T22:19:53.938Z,75.97
2019-05-09T22:22:02.297Z,76.26
2019-05-09T22:24:10.619Z,76.48
2019-05-09T22:26:19.267Z,76.62
2019-05-09T22:28:27.746Z,76.72
2019-05-09T22:30:35.873Z,76.78
2019-05-09T22:32:44.384Z,76.78
2019-05-09T22:34:52.700Z,76.77
2019-05-09T22:37:00.791Z,76.79
2019-05-09T22:39:09.211Z,76.88
2019-05-09T22:41:17.600Z,76.97
2019-05-09T22:43:25.957Z,77.15
2019-05-09T22:45:34.282Z,77.22
2019-05-09T22:47:42.783Z,77.36
2019-05-09T22:49:52.806Z,77.49
2019-05-09T22:52:00.759Z,77.64
2019-05-09T22:54:12.792Z,77.74
2019-05-09T22:56:18.768Z,77.87
2019-05-09T22:58:27.160Z,77.95
2019-05-09T23:00:35.471Z,78.00
2019-05-09T23:02:43.767Z,78.00
2019-05-09T23:04:51.759Z,78.09
2019-05-09T23:07:00.157Z,78.14
2019-05-09T23:09:09.354Z,78.14
2019-05-09T23:11:17.776Z,78.12
2019-05-09T23:13:26.050Z,78.10
2019-05-09T23:15:34.521Z,78.12
2019-05-09T23:17:42.824Z,78.16
2019-05-09T23:19:51.227Z,78.23
2019-05-09T23:21:59.615Z,78.27
2019-05-09T23:24:09.837Z,78.36
2019-05-09T23:26:19.565Z,78.39
2019-05-09T23:28:28.192Z,78.29
2019-05-09T23:30:36.486Z,78.16
2019-05-09T23:32:46.340Z,78.13
2019-05-09T23:34:54.823Z,78.07
2019-05-09T23:37:03.217Z,77.98
2019-05-09T23:39:13.275Z,77.93
2019-05-09T23:41:21.577Z,77.96
2019-05-09T23:43:29.756Z,77.96
2019-05-09T23:45:37.869Z,77.99
2019-05-09T23:47:46.182Z,78.05
2019-05-09T23:49:54.294Z,78.08
2019-05-09T23:52:02.583Z,78.06
2019-05-09T23:54:10.128Z,78.11
2019-05-09T23:56:36.115Z,78.14
2019-05-09T23:59:02.360Z,78.12
